Flight Track Log - Related Links

Times and Time Zones

All times are in EDT time to prevent confusion due to time zone crossing. See the JBU572 flight status page for this flight to view local times or setup timezone preferences in your user account.

Time Position Orientation Groundspeed Altitude Reporting Facility
EDT Latitude Longitude Course Direction KTS MPH feet Rate Location/Type
Tue 08:10:15 AM 26.7219 -79.9639 53° Northeast 231 266 4,800  Level Miami Center
Tue 08:11:00 AM 26.9311 -79.6769 55° Northeast  Level FlightAware Approximate
Tue 08:11:15 AM 26.7819 -79.8981 44° Northeast 262 302 7,900  Level Miami Center
Tue 08:12:00 AM 26.9992 -79.5680 55° Northeast  Level FlightAware Approximate
Tue 08:12:15 AM 26.8375 -79.8344 46° Northeast 281 323 10,500  Level Miami Center
Tue 08:13:00 AM 27.0677 -79.4594 56° Northeast  Level FlightAware Approximate
Tue 08:13:15 AM 26.8956 -79.7497 52° Northeast 311 358 11,700  Level Miami Center
Tue 08:14:00 AM 27.1354 -79.3500 55° Northeast  Level FlightAware Approximate
Tue 08:14:15 AM 26.9517 -79.6647 53° Northeast 362 417 13,900  Level Miami Center
Tue 08:15:00 AM 27.2118 -79.2490 53° Northeast  Level FlightAware Approximate
Tue 08:15:15 AM 27.0139 -79.5661 55° Northeast 386 444 15,800  Level Miami Center
Tue 08:16:15 AM 27.0869 -79.4533 54° Northeast 394 453 17,800 1,850 Climbing Miami Center
Tue 08:17:15 AM 27.1558 -79.3475 54° Northeast 415 478 19,500 1,700 Climbing Miami Center
Tue 08:18:15 AM 27.2286 -79.2369 53° Northeast 426 490 21,200 1,600 Climbing Miami Center
Tue 08:19:15 AM 27.2886 -79.1378 56° Northeast 426 490 22,700 1,450 Climbing Miami Center
Tue 08:20:15 AM 27.3778 -79.0436 43° Northeast 432 497 24,100 1,450 Climbing Miami Center
Tue 08:21:15 AM 27.5056 -79.0156 11° North 399 459 25,600 1,350 Climbing Miami Center
Tue 08:22:15 AM 27.6250 -78.9897 11° North 421 484 26,800 1,100 Climbing Miami Center
Tue 08:23:15 AM 27.7319 -78.9658 11° North 434 499 27,800 1,000 Climbing Miami Center
Tue 08:24:15 AM 27.8517 -78.9186 19° North 439 505 28,800 1,100 Climbing Miami Center
Tue 08:25:15 AM 27.9692 -78.8667 21° North 444 511 30,000 1,150 Climbing Miami Center
Tue 08:26:15 AM 28.0869 -78.8147 21° North 444 511 31,100 1,000 Climbing Miami Center
Tue 08:27:15 AM 28.2003 -78.7647 21° North 444 511 32,000 1,050 Climbing Miami Center
Tue 08:28:15 AM 28.3197 -78.7386 11° North 444 511 33,200 950 Climbing Miami Center
Tue 08:29:15 AM 28.4431 -78.7169 North 432 497 33,900 700 Climbing Miami Center
Tue 08:30:15 AM 28.5622 -78.6931 10° North 432 497 34,600 550 Climbing Miami Center
Tue 08:31:15 AM 28.6836 -78.6714 North 432 497 35,000 200 Climbing Miami Center
Tue 08:32:15 AM 28.8028 -78.6472 10° North 431 496 35,000  Level Miami Center
Tue 08:33:15 AM 28.9264 -78.6206 11° North 443 510 35,000  Level Miami Center
Tue 08:34:15 AM 29.0539 -78.5989 North 449 517 35,000  Level Miami Center
Tue 08:35:15 AM 29.1753 -78.5725 11° North 449 517 35,000  Level Miami Center
Tue 08:36:15 AM 29.2986 -78.5481 10° North 449 517 35,000  Level Miami Center
Tue 08:37:15 AM 29.4261 -78.5239 North 442 509 35,000  Level Miami Center
Tue 08:38:15 AM 29.5536 -78.5019 North 454 522 35,000  Level Miami Center
Tue 08:38:56 AM 29.6453 -78.4769 13° North 455 524 35,000  Level Jacksonville Center
Tue 08:39:56 AM 29.7633 -78.4500 11° North 432 497 35,000 -50 Level Jacksonville Center
Tue 08:40:56 AM 29.8856 -78.4228 11° North 438 504 34,900 -50 Descending Jacksonville Center
Tue 08:41:56 AM 30.0186 -78.4072 North 448 516 34,900 50 Level Jacksonville Center
Tue 08:42:56 AM 30.1450 -78.3844 North 453 521 35,000 50 Climbing Jacksonville Center
Tue 08:43:56 AM 30.2611 -78.3572 11° North 445 512 35,000  Level Jacksonville Center
Tue 08:44:56 AM 30.3917 -78.3319 North 453 521 35,000  Level Jacksonville Center
Tue 08:45:56 AM 30.5222 -78.3064 10° North 458 527 35,000  Level Jacksonville Center
Tue 08:46:56 AM 30.6422 -78.2814 10° North 466 536 35,000  Level Jacksonville Center
Tue 08:47:56 AM 30.7667 -78.2558 10° North 455 524 35,000  Level Jacksonville Center
Tue 08:48:56 AM 30.8908 -78.2281 11° North 458 527 35,000  Level Jacksonville Center
Tue 08:49:56 AM 31.0069 -78.2103 North 443 510 35,000  Level Jacksonville Center
Tue 08:50:56 AM 31.1311 -78.1797 12° North 443 510 35,000  Level Jacksonville Center
Tue 08:51:56 AM 31.2575 -78.1514 11° North 448 516 35,000  Level Jacksonville Center
Tue 08:52:56 AM 31.3817 -78.1233 11° North 448 516 35,000  Level Jacksonville Center
Tue 08:53:56 AM 31.5039 -78.1025 North 448 516 35,000  Level Jacksonville Center
Tue 08:54:56 AM 31.6261 -78.0767 10° North 448 516 35,000 -50 Level Jacksonville Center
Tue 08:55:56 AM 31.7475 -78.0264 19° North 448 516 34,900 -50 Descending Jacksonville Center
Tue 08:56:56 AM 31.8669 -77.9858 16° North 448 516 34,900  Level Jacksonville Center
Tue 08:57:56 AM 31.9925 -77.9400 17° North 453 521 34,900 50 Level Jacksonville Center
Tue 08:58:56 AM 32.1139 -77.8942 18° North 458 527 35,000 50 Climbing Jacksonville Center
Tue 08:59:56 AM 32.2392 -77.8481 17° North 458 527 35,000  Level Jacksonville Center
Tue 09:00:56 AM 32.3628 -77.8019 17° North 458 527 35,000  Level Jacksonville Center
Tue 09:01:56 AM 32.4858 -77.7531 19° North 458 527 35,000  Level Jacksonville Center
Tue 09:02:56 AM 32.6072 -77.7067 18° North 453 521 35,000 -50 Level Jacksonville Center
Tue 09:03:56 AM 32.7261 -77.6581 19° North 453 521 34,900 -29 Descending Jacksonville Center
Tue 09:06:21 AM 33.0211 -77.5456 18° North 452 520 34,900 29 Level Washington Center
Tue 09:07:21 AM 33.1428 -77.4986 18° North 446 513 35,000 50 Climbing Washington Center
Tue 09:08:21 AM 33.2644 -77.4517 18° North 451 519 35,000  Level Washington Center
Tue 09:09:21 AM 33.4008 -77.4000 18° North 451 519 35,000  Level Washington Center
Tue 09:10:21 AM 33.5247 -77.3531 18° North 451 519 35,000  Level Washington Center
Tue 09:11:21 AM 33.6464 -77.3031 19° North 451 519 35,000  Level Washington Center
Tue 09:12:21 AM 33.7744 -77.2533 18° North 461 531 35,000 -50 Level Washington Center
Tue 09:13:21 AM 33.8961 -77.2033 19° North 461 531 34,900 -50 Descending Washington Center
Tue 09:14:21 AM 34.0219 -77.1531 18° North 461 531 34,900 50 Level Washington Center
Tue 09:15:21 AM 34.1478 -77.1053 17° North 467 537 35,000 50 Climbing Washington Center
Tue 09:16:21 AM 34.2756 -77.0547 18° North 467 537 35,000  Level Washington Center
Tue 09:17:21 AM 34.3992 -77.0042 19° North 467 537 35,000 -50 Level Washington Center
Tue 09:18:21 AM 34.5272 -76.9533 18° North 473 544 34,900  Descending Washington Center
Tue 09:19:21 AM 34.6550 -76.9025 18° North 473 544 35,000  Climbing Washington Center
Tue 09:20:21 AM 34.7808 -76.8489 19° North 473 544 34,900  Descending Washington Center
Tue 09:21:21 AM 34.9106 -76.8003 17° North 473 544 35,000 50 Climbing Washington Center
Tue 09:22:21 AM 35.0406 -76.7489 18° North 479 551 35,000  Level Washington Center
Tue 09:23:21 AM 35.1683 -76.6922 20° North 484 557 35,000  Level Washington Center
Tue 09:24:21 AM 35.3003 -76.6406 18° North 484 557 35,000  Level Washington Center
Tue 09:25:21 AM 35.4175 -76.5886 20° North 489 563 35,000  Level Washington Center
Tue 09:26:21 AM 35.5492 -76.5392 17° North 489 563 35,000  Level Washington Center
Tue 09:27:21 AM 35.6792 -76.4794 20° North 489 563 35,000  Level Washington Center
Tue 09:28:21 AM 35.8131 -76.4244 18° North 489 563 35,000  Level Washington Center
Tue 09:29:21 AM 35.9469 -76.3694 18° North 494 568 35,000 -50 Level Washington Center
Tue 09:30:21 AM 36.0786 -76.3194 17° North 494 568 34,900 -50 Descending Washington Center
Tue 09:31:21 AM 36.2106 -76.2586 20° North 494 568 34,900 100 Level Washington Center
Tue 09:32:21 AM 36.3444 -76.2058 18° North 500 575 35,100 850 Climbing Washington Center
Tue 09:33:21 AM 36.4803 -76.1475 19° North 505 581 36,600 950 Climbing Washington Center
Tue 09:34:21 AM 36.6119 -76.0939 18° North 499 574 37,000 200 Climbing Washington Center
Tue 09:35:21 AM 36.7394 -76.0378 19° North 493 567 37,000  Level Washington Center
Tue 09:36:21 AM 36.8731 -75.9789 19° North 493 567 37,000 -50 Level Washington Center
Tue 09:37:21 AM 37.0297 -75.9144 18° North 520 598 36,900  Descending Washington Center
Tue 09:38:21 AM 37.1633 -75.8578 19° North 515 593 37,000 50 Climbing Washington Center
Tue 09:39:21 AM 37.2992 -75.8008 18° North 515 593 37,000  Level Washington Center
Tue 09:40:21 AM 37.4328 -75.7408 20° North 510 587 37,000  Level Washington Center
Tue 09:41:21 AM 37.5661 -75.6836 19° North 500 575 37,000 -50 Level Washington Center
Tue 09:42:21 AM 37.6997 -75.6258 19° North 500 575 36,900 -50 Descending Washington Center
Tue 09:43:21 AM 37.8311 -75.5681 19° North 500 575 36,900 50 Level Washington Center
Tue 09:44:21 AM 37.9686 -75.5075 19° North 500 575 37,000 50 Climbing Washington Center
Tue 09:45:21 AM 38.1000 -75.4414 22° Northeast 500 575 37,000  Level Washington Center
Tue 09:46:21 AM 38.2292 -75.3617 26° Northeast 505 581 37,000  Level Washington Center
Tue 09:47:21 AM 38.3436 -75.2872 27° Northeast 505 581 37,000  Level Washington Center
Tue 09:48:21 AM 38.4728 -75.2097 25° Northeast 505 581 37,000 -50 Level Washington Center
Tue 09:49:21 AM 38.5997 -75.1242 28° Northeast 510 587 36,900  Descending Washington Center
Tue 09:50:21 AM 38.7286 -75.0381 28° Northeast 510 587 37,000 50 Climbing Washington Center
Tue 09:51:21 AM 38.8594 -74.9544 26° Northeast 515 593 37,000 -500 Level Washington Center
Tue 09:52:21 AM 39.0047 -74.8597 27° Northeast 520 598 36,000 -1,000 Descending Washington Center
Tue 09:53:21 AM 39.1272 -74.7647 31° Northeast 520 598 35,000 -950 Descending Washington Center
Tue 09:54:21 AM 39.2408 -74.6508 38° Northeast 514 592 34,100 -1,107 Descending Washington Center
Tue 09:55:04 AM 39.3078 -74.5836 38° Northeast 515 593 33,100 -2,308 Descending New York Center
Tue 09:56:05 AM 39.4197 -74.4686 38° Northeast 542 624 30,100 -3,295 Descending New York Center
Tue 09:57:06 AM 39.5297 -74.3533 39° Northeast 522 601 26,400 -3,126 Descending New York Center
Tue 09:58:04 AM 39.6308 -74.2453 39° Northeast 494 568 23,900 -1,714 Descending New York Center
Tue 09:59:05 AM 39.7256 -74.1447 39° Northeast 458 527 23,000 -446 Descending New York Center
Tue 10:00:05 AM 39.8181 -74.0492 38° Northeast 435 501 23,000 -234 Level New York Center
Tue 10:01:39 AM 39.9656 -73.8856 40° Northeast 462 532 22,400 -779 Descending Boston Center
Tue 10:02:39 AM 40.0561 -73.7928 38° Northeast 433 498 21,000 -1,350 Descending Boston Center
Tue 10:03:39 AM 40.1406 -73.6994 40° Northeast 408 470 19,700 -1,400 Descending Boston Center
Tue 10:04:39 AM 40.2333 -73.6033 38° Northeast 390 449 18,200 -1,200 Descending Boston Center
Tue 10:05:39 AM 40.3114 -73.5206 39° Northeast 374 430 17,300 -600 Descending Boston Center
Tue 10:06:39 AM 40.3911 -73.4508 34° Northeast 356 410 17,000 -150 Descending Boston Center
Tue 10:07:39 AM 40.4872 -73.4169 15° North 341 392 17,000 -372 Level Boston Center
Tue 10:08:32 AM 40.5667 -73.3833 18° North 353 406 16,300 -895 Descending New York TRACON
Tue 10:09:33 AM 40.6667 -73.3500 14° North 351 404 15,300 -645 Descending New York TRACON
Tue 10:10:33 AM 40.7500 -73.3167 17° North 321 369 15,000 -350 Descending New York TRACON
Tue 10:11:33 AM 40.8167 -73.2500 37° Northeast 319 367 14,600 -1,050 Descending New York TRACON
Tue 10:12:33 AM 40.8667 -73.1500 57° Northeast 346 398 12,900 -1,500 Descending New York TRACON
Tue 10:13:33 AM 40.9167 -73.0667 52° Northeast 305 351 11,600 -1,800 Descending New York TRACON
Tue 10:14:33 AM 40.9667 -73.0000 45° Northeast 301 346 9,300 -2,350 Descending New York TRACON
Tue 10:15:33 AM 41.0167 -73.0833 309° West 289 333 6,900 -1,650 Descending New York TRACON
Tue 10:16:33 AM 41.0500 -73.1667 298° West 271 312 6,000 -800 Descending New York TRACON
Tue 10:17:33 AM 41.0833 -73.2500 298° West 233 268 5,300 -545 Descending New York TRACON
Tue 10:18:34 AM 41.1167 -73.3167 304° West 229 264 4,900 -645 Descending New York TRACON
Tue 10:19:34 AM 41.1000 -73.4000 255° West 230 265 4,000 -550 Descending New York TRACON
Tue 10:20:34 AM 41.0667 -73.4667 236° Southwest 223 257 3,800 -810 Descending New York TRACON
Tue 10:21:40 AM 41.0167 -73.5333 225° Southwest 223 257 2,300 -810 Descending New York TRACON
Tue 10:22:40 AM 40.9833 -73.5833 229° Southwest 218 251 2,100 -158 Descending New York TRACON
Tue 10:23:34 AM 40.9833 -73.6500 270° West 204 235 2,000 -400 Descending New York TRACON
Tue 10:24:40 AM 41.0167 -73.6667 339° North 169 194 1,300 -700 Descending New York TRACON
Tue 10:25:34 AM 41.0500 -73.7000 323° Northwest 130 150 600 -778 Descending New York TRACON

Login

Don't have an account? Register now (free) for customized features, flight alerts, and more!